Latest Weather Observations for Brisbane

IDQ60901

Issued at 2:11 pm EST Wednesday 26 April 2017 (issued every 10 minutes, with the page automatically refreshed every 10 minutes)

About weather observations | Map of Brisbane area stations | Latest observations for Brisbane area | Other Formats
Station Details ID: 040913 Name: BRISBANE Lat: -27.48 Lon: 153.04 Height: 8.13 m
Data from the previous 72 hours. | See also: Recent months at Brisbane
Date/Time
EST
Temp
°C
App
Temp
°C
Dew
Point
°C
Rel
Hum
%
Delta-T
°C
Wind Press
QNH
hPa
Press
MSL
hPa
Rain since
9am
mm
Dir  Spd
km/h
Gust
km/h
Spd
kts
Gust
kts
26/02:00pm 23.6 26.3 18.7 74 3.1 NNE 2 4 1 2 1009.4 1009.4 0.2
26/01:30pm 23.1 26.1 18.4 75 3.0 CALM 0 0 0 0 1009.7 1009.7 0.2
26/01:00pm 22.7 25.1 18.0 75 2.9 N 2 6 1 3 1010.0 1010.0 0.0
26/12:30pm 23.1 25.7 18.4 75 3.0 N 2 6 1 3 1010.8 1010.8 0.0
26/12:00pm 22.9 25.1 17.4 71 3.4 WSW 2 6 1 3 1011.5 1011.5 0.0
26/11:30am 23.1 25.2 17.3 70 3.6 ENE 2 6 1 3 1011.7 1011.7 0.0
26/11:00am 22.8 24.8 17.0 70 3.6 NNE 2 2 1 1 1012.4 1012.4 0.0
26/10:30am 22.0 24.2 16.5 71 3.3 CALM 0 2 0 1 1013.1 1013.1 0.0
26/10:00am 22.0 23.3 17.2 74 2.9 SSW 6 11 3 6 1013.8 1013.8 0.0
26/09:30am 22.7 24.2 16.7 69 3.7 NW 4 6 2 3 1013.6 1013.6 0.0
26/09:00am 22.5 23.9 16.5 69 3.6 WNW 4 9 2 5 1013.7 1013.7 0.2
26/08:30am 21.3 23.5 17.5 79 2.3 E 2 7 1 4 1013.5 1013.5 0.2
26/08:00am 20.3 22.0 17.1 82 1.9 SW 4 9 2 5 1014.2 1014.2 0.2
26/07:30am 19.7 21.7 16.9 84 1.7 W 2 6 1 3 1014.1 1014.1 0.2
26/07:00am 18.4 20.8 17.1 92 0.8 CALM 0 0 0 0 1013.5 1013.5 0.2
26/06:30am 17.0 18.8 15.5 91 0.9 CALM 0 0 0 0 1013.5 1013.5 0.2
26/06:00am 17.4 19.3 15.7 90 1.0 CALM 0 0 0 0 1013.7 1013.7 0.2
26/05:30am 17.6 19.3 16.1 91 0.9 SW 2 6 1 3 1013.8 1013.8 0.2
26/05:00am 16.9 18.6 15.1 89 1.0 CALM 0 0 0 0 1013.4 1013.4 0.2
26/04:30am 17.5 19.3 15.5 88 1.2 CALM 0 2 0 1 1013.2 1013.2 0.2
26/04:00am 17.9 19.6 15.2 84 1.6 CALM 0 0 0 0 1013.2 1013.2 0.2
26/03:30am 19.1 20.3 16.0 82 1.8 SW 4 7 2 4 1013.4 1013.4 0.2
26/03:00am 19.9 21.1 16.0 78 2.3 NW 4 6 2 3 1013.2 1013.2 0.2
26/02:30am 20.3 21.0 16.1 77 2.5 NW 7 13 4 7 1013.2 1013.2 0.2
26/02:00am 19.7 21.3 16.0 79 2.2 NNW 2 9 1 5 1013.3 1013.3 0.2
26/01:30am 19.8 21.5 16.1 79 2.2 NNW 2 6 1 3 1013.5 1013.5 0.2
26/01:00am 20.6 21.9 16.2 76 2.6 NW 4 7 2 4 1013.9 1013.9 0.2
26/12:30am 20.7 21.7 16.3 76 2.6 NNW 6 13 3 7 1013.9 1013.9 0.2
26/12:00am 20.8 21.9 16.6 77 2.5 NW 6 13 3 7 1014.1 1014.1 0.2
 
Date/Time
EST
Temp
°C
App
Temp
°C
Dew
Point
°C
Rel
Hum
%
Delta-T
°C
Wind Press
QNH
hPa
Press
MSL
hPa
Rain since
9am
mm
Dir  Spd
km/h
Gust
km/h
Spd
kts
Gust
kts
25/11:30pm 20.4 22.0 16.8 80 2.2 NNW 4 7 2 4 1014.5 1014.5 0.2
25/11:00pm 20.2 22.1 16.8 81 2.1 N 2 6 1 3 1014.9 1014.9 0.2
25/10:30pm 20.5 22.0 16.7 79 2.3 NNW 4 9 2 5 1015.1 1015.1 0.2
25/10:00pm 21.0 22.3 17.0 78 2.4 NNW 6 13 3 7 1015.4 1015.4 0.2
25/09:30pm 20.9 22.6 17.1 79 2.3 NNW 4 9 2 5 1015.7 1015.7 0.2
25/09:00pm 20.9 22.7 17.3 80 2.2 NNW 4 7 2 4 1015.9 1015.9 0.2
25/08:30pm 20.9 23.0 17.1 79 2.3 N 2 6 1 3 1015.9 1015.9 0.2
25/08:00pm 21.3 23.4 17.1 77 2.6 NNE 2 6 1 3 1015.7 1015.7 0.2
25/07:30pm 21.4 23.1 17.2 77 2.6 NNE 4 7 2 4 1015.7 1015.7 0.2
25/07:00pm 21.5 23.2 17.1 76 2.7 N 4 9 2 5 1015.3 1015.3 0.2
25/06:30pm 21.7 23.5 17.3 76 2.7 NNE 4 7 2 4 1015.3 1015.3 0.2
25/06:00pm 22.1 23.7 17.0 73 3.1 NNE 4 9 2 5 1015.1 1015.1 0.2
25/05:30pm 22.5 23.5 16.3 68 3.8 NNE 6 11 3 6 1015.2 1015.2 0.2
25/05:00pm 23.4 23.9 14.9 59 5.1 NNE 6 13 3 7 1015.0 1015.0 0.2
25/04:30pm 24.8 25.0 14.3 52 6.2 N 6 9 3 5 1014.6 1014.6 0.2
25/04:00pm 25.3 25.2 13.8 49 6.8 NE 7 13 4 7 1014.6 1014.6 0.2
25/03:30pm 25.6 25.4 13.5 47 7.1 NE 7 11 4 6 1014.8 1014.8 0.2
25/03:00pm 26.6 27.4 14.7 48 7.1 NNE 4 13 2 7 1014.9 1014.9 0.2
25/02:30pm 26.1 26.0 13.9 47 7.2 NE 7 13 4 7 1015.1 1015.1 0.2
25/02:00pm 26.2 26.4 14.3 48 7.1 ENE 6 13 3 7 1015.3 1015.3 0.2
25/01:30pm 25.8 25.8 14.3 49 6.8 E 7 13 4 7 1015.8 1015.8 0.2
25/01:00pm 26.0 26.4 13.8 47 7.2 NW 4 7 2 4 1016.2 1016.2 0.2
25/12:30pm 25.5 26.1 14.3 50 6.7 NNE 4 9 2 5 1016.8 1016.8 0.2
25/12:00pm 24.9 25.6 15.5 56 5.7 ESE 6 11 3 6 1017.4 1017.4 0.2
25/11:30am 25.3 26.6 16.2 57 5.6 NNE 4 9 2 5 1018.0 1018.0 0.2
25/11:00am 24.5 25.4 16.2 60 5.1 WSW 6 9 3 5 1018.5 1018.5 0.2
25/10:30am 23.9 25.3 16.4 63 4.6 W 4 7 2 4 1018.9 1018.9 0.2
25/10:00am 23.2 24.4 15.8 63 4.5 SSE 4 7 2 4 1019.3 1019.3 0.2
25/09:30am 22.2 23.6 16.5 70 3.5 WSW 4 7 2 4 1019.5 1019.5 0.0
25/09:00am 20.8 22.2 16.4 76 2.6 SW 4 7 2 4 1019.6 1019.6 0.2
25/08:30am 19.7 20.9 15.8 78 2.3 WSW 4 6 2 3 1019.6 1019.6 0.2
25/08:00am 18.7 19.4 15.6 82 1.8 SW 6 9 3 5 1019.8 1019.8 0.2
25/07:30am 17.8 19.0 15.8 88 1.2 WSW 4 7 2 4 1019.7 1019.7 0.2
25/07:00am 16.9 18.0 15.6 92 0.8 SW 4 6 2 3 1019.3 1019.3 0.2
25/06:30am 16.0 16.9 15.0 94 0.6 WSW 4 6 2 3 1019.1 1019.1 0.2
25/06:00am 16.0 16.9 15.0 94 0.6 WSW 4 9 2 5 1018.8 1018.8 0.2
25/05:30am 15.9 17.1 14.8 93 0.6 WSW 2 6 1 3 1018.6 1018.6 0.2
25/05:00am 16.0 17.6 14.9 93 0.6 CALM 0 4 0 2 1018.3 1018.3 0.2
25/04:30am 16.0 17.1 14.7 92 0.7 WSW 2 4 1 2 1018.1 1018.1 0.2
25/04:00am 16.5 17.8 15.2 92 0.8 SW 2 6 1 3 1018.2 1018.2 0.2
25/03:30am 16.6 17.7 15.5 93 0.6 WSW 4 7 2 4 1018.8 1018.8 0.2
25/03:00am 16.8 17.9 15.5 92 0.8 SW 4 7 2 4 1018.8 1018.8 0.2
25/02:30am 16.8 17.9 15.5 92 0.8 WSW 4 6 2 3 1018.7 1018.7 0.2
25/02:00am 17.0 18.1 15.5 91 0.9 SSW 4 7 2 4 1018.8 1018.8 0.2
25/01:30am 16.8 18.7 15.7 93 0.6 CALM 0 2 0 1 1019.0 1019.0 0.2
25/01:00am 17.0 18.6 15.9 93 0.6 WSW 2 4 1 2 1019.2 1019.2 0.2
25/12:30am 17.1 18.6 15.8 92 0.8 WSW 2 4 1 2 1019.4 1019.4 0.2
25/12:00am 17.1 19.1 16.0 93 0.6 CALM 0 2 0 1 1019.7 1019.7 0.2
 
Date/Time
EST
Temp
°C
App
Temp
°C
Dew
Point
°C
Rel
Hum
%
Delta-T
°C
Wind Press
QNH
hPa
Press
MSL
hPa
Rain since
9am
mm
Dir  Spd
km/h
Gust
km/h
Spd
kts
Gust
kts
24/11:30pm 16.7 18.5 15.6 93 0.6 CALM 0 0 0 0 1020.2 1020.2 0.2
24/11:00pm 16.9 18.7 15.6 92 0.8 CALM 0 0 0 0 1020.3 1020.3 0.2
24/10:30pm 16.9 18.7 15.4 91 0.9 CALM 0 0 0 0 1020.3 1020.3 0.2
24/10:00pm 17.2 19.0 15.5 90 1.0 CALM 0 0 0 0 1020.7 1020.7 0.2
24/09:30pm 17.5 19.4 15.8 90 1.0 CALM 0 0 0 0 1020.8 1020.8 0.2
24/09:00pm 17.6 19.4 15.6 88 1.2 CALM 0 0 0 0 1020.7 1020.7 0.2
24/08:30pm 18.1 20.1 15.9 87 1.3 CALM 0 0 0 0 1020.6 1020.6 0.2
24/08:00pm 18.4 20.3 15.8 85 1.5 CALM 0 0 0 0 1020.4 1020.4 0.2
24/07:30pm 18.9 20.9 16.0 83 1.7 CALM 0 0 0 0 1020.3 1020.3 0.2
24/07:00pm 19.3 21.1 15.6 79 2.2 CALM 0 2 0 1 1020.0 1020.0 0.2
24/06:30pm 20.4 21.9 15.6 74 2.9 E 2 4 1 2 1019.7 1019.7 0.2
24/06:00pm 21.3 22.2 16.0 72 3.2 E 6 7 3 4 1019.4 1019.4 0.2
24/05:30pm 21.9 22.6 15.5 67 3.8 E 6 9 3 5 1019.2 1019.2 0.2
24/05:00pm 22.5 22.8 15.1 63 4.4 ENE 7 13 4 7 1018.9 1018.9 0.2
24/04:30pm 23.3 22.4 14.8 59 5.0 ENE 13 19 7 10 1018.8 1018.8 0.2
24/04:00pm 23.8 23.6 15.8 61 4.8 E 11 19 6 10 1018.6 1018.6 0.2
24/03:30pm 24.5 25.2 17.0 63 4.6 ENE 9 15 5 8 1018.7 1018.7 0.2
24/03:00pm 22.5 24.4 16.8 70 3.5 NW 2 6 1 3 1018.7 1018.7 0.2
24/02:30pm 22.8 24.4 17.0 70 3.6 SSW 4 11 2 6 1018.6 1018.6 0.2
24/02:00pm 25.8 26.9 17.2 59 5.3 NE 7 15 4 8 1018.6 1018.6 0.0
24/01:30pm 24.1 25.8 16.1 61 4.9 NNE 2 6 1 3 1018.9 1018.9 0.0
24/01:00pm 24.2 25.0 15.9 59 5.0 ENE 6 13 3 7 1019.3 1019.3 0.0
24/12:30pm 23.8 24.1 15.0 57 5.3 E 7 13 4 7 1019.4 1019.4 0.0
24/12:00pm 25.1 25.4 15.1 53 6.0 E 7 13 4 7 1019.9 1019.9 0.0
24/11:30am 24.8 25.3 15.1 54 5.8 S 6 11 3 6 1020.4 1020.4 0.0
24/11:00am 24.5 25.0 14.9 55 5.7 SE 6 9 3 5 1021.1 1021.1 0.0
24/10:30am 24.3 25.5 15.8 59 5.1 SSW 4 9 2 5 1021.5 1021.5 0.0
24/10:00am 24.0 24.8 15.8 60 4.9 S 6 11 3 6 1021.8 1021.8 0.0
24/09:30am 22.5 23.3 15.8 66 4.0 WSW 6 9 3 5 1022.0 1022.0 0.0
24/09:00am 21.5 22.3 15.8 70 3.4 SW 6 9 3 5 1021.9 1021.9 0.0
24/08:30am 20.4 21.4 15.4 73 3.0 SSW 4 7 2 4 1021.9 1021.9 0.0
24/08:00am 19.4 20.4 15.3 77 2.4 SW 4 9 2 5 1021.7 1021.7 0.0
24/07:30am 18.5 19.4 15.2 81 1.9 SW 4 7 2 4 1021.5 1021.5 0.0
24/07:00am 17.5 18.5 15.3 87 1.3 SW 4 7 2 4 1021.0 1021.0 0.0
24/06:30am 16.7 17.5 14.9 89 1.0 SSW 4 7 2 4 1020.8 1020.8 0.0
24/06:00am 16.7 17.0 14.5 87 1.3 SW 6 9 3 5 1020.7 1020.7 0.0
24/05:30am 16.7 17.5 14.7 88 1.2 SSW 4 9 2 5 1020.5 1020.5 0.0
24/05:00am 16.8 17.7 15.0 89 1.0 SW 4 9 2 5 1020.2 1020.2 0.0
24/04:30am 17.2 18.2 15.4 89 1.1 SSW 4 7 2 4 1020.0 1020.0 0.0
24/04:00am 17.6 18.8 15.8 89 1.1 SW 4 9 2 5 1020.2 1020.2 0.0
24/03:30am 17.8 18.7 16.1 90 1.0 WSW 6 9 3 5 1020.2 1020.2 0.0
24/03:00am 17.7 18.9 16.0 90 1.0 WSW 4 6 2 3 1020.4 1020.4 0.0
24/02:30am 18.4 19.7 16.2 87 1.3 SW 4 7 2 4 1020.4 1020.4 0.0
24/02:00am 18.6 20.4 16.4 87 1.3 SW 2 7 1 4 1020.8 1020.8 0.0
24/01:30am 18.5 20.3 16.5 88 1.2 SW 2 4 1 2 1021.0 1021.0 0.0
24/01:00am 18.4 19.8 16.4 88 1.2 S 4 6 2 3 1021.0 1021.0 0.0
24/12:30am 18.1 20.3 16.4 90 1.0 CALM 0 4 0 2 1021.5 1021.5 0.0
24/12:00am 18.0 20.1 16.3 90 1.0 CALM 0 0 0 0 1021.7 1021.7 0.0
 
Date/Time
EST
Temp
°C
App
Temp
°C
Dew
Point
°C
Rel
Hum
%
Delta-T
°C
Wind Press
QNH
hPa
Press
MSL
hPa
Rain since
9am
mm
Dir  Spd
km/h
Gust
km/h
Spd
kts
Gust
kts
23/11:30pm 18.1 20.3 16.6 91 0.9 CALM 0 0 0 0 1022.0 1022.0 0.0
23/11:00pm 17.9 20.1 16.4 91 0.9 CALM 0 0 0 0 1022.0 1022.0 0.0
23/10:30pm 17.6 19.6 16.1 91 0.9 CALM 0 4 0 2 1022.1 1022.1 0.0
23/10:00pm 17.4 19.3 15.7 90 1.0 CALM 0 0 0 0 1022.1 1022.1 0.0
23/09:30pm 17.8 19.8 16.1 90 1.0 CALM 0 0 0 0 1022.1 1022.1 0.0
23/09:00pm 18.0 20.0 16.0 88 1.2 CALM 0 0 0 0 1022.2 1022.2 0.0
23/08:30pm 18.5 20.5 15.9 85 1.5 CALM 0 0 0 0 1022.2 1022.2 0.0
23/08:00pm 19.1 20.7 16.0 82 1.8 E 2 4 1 2 1021.9 1021.9 0.0
23/07:30pm 19.8 21.2 16.3 80 2.1 E 4 6 2 3 1021.7 1021.7 0.0
23/07:00pm 20.2 21.8 16.0 77 2.5 ENE 2 4 1 2 1021.5 1021.5 0.0
23/06:30pm 20.8 22.4 16.0 74 2.9 E 2 4 1 2 1021.3 1021.3 0.0
23/06:00pm 21.6 22.6 16.3 72 3.2 E 6 9 3 5 1021.0 1021.0 0.0
23/05:30pm 22.1 22.8 16.1 69 3.6 ESE 7 13 4 7 1020.8 1020.8 0.0
23/05:00pm 22.9 23.6 16.2 66 4.1 E 7 15 4 8 1020.4 1020.4 0.0
23/04:30pm 23.6 24.1 15.6 61 4.8 E 7 11 4 6 1020.2 1020.2 0.0
23/04:00pm 23.8 24.0 14.8 57 5.3 E 7 15 4 8 1019.9 1019.9 0.0
23/03:30pm 24.5 25.2 16.0 59 5.2 E 7 15 4 8 1019.8 1019.8 0.0
23/03:00pm 25.1 25.4 16.0 57 5.5 E 9 17 5 9 1019.7 1019.7 0.0
23/02:30pm 24.9 25.5 15.8 57 5.5 E 7 17 4 9 1019.8 1019.8 0.0

Latest Capital City Observations: Canberra | Sydney | Melbourne | Brisbane | Adelaide | Perth | Hobart | Darwin

Other Formats:

Comma delimited format used in spreadsheet applications
http://www.bom.gov.au/fwo/IDQ60901/IDQ60901.94576.axf

JavaScript Object Notation format (JSON) in row-major order
http://www.bom.gov.au/fwo/IDQ60901/IDQ60901.94576.json